createdAt,value
2022-11-15T00:00:41.394Z,14.77
2022-11-15T00:06:26.347Z,14.8
2022-11-15T00:12:09.396Z,14.81
2022-11-15T00:17:53.133Z,14.82
2022-11-15T00:23:36.523Z,14.9
2022-11-15T00:29:19.587Z,14.89
2022-11-15T00:35:02.408Z,14.9
2022-11-15T00:40:45.904Z,14.92
2022-11-15T00:46:28.805Z,14.95
2022-11-15T00:52:13.713Z,15
2022-11-15T00:57:56.651Z,15.01
2022-11-15T01:03:40.175Z,15.01
2022-11-15T01:09:23.176Z,15.04
2022-11-15T01:15:06.295Z,15.08
2022-11-15T01:20:50.359Z,15.08
2022-11-15T01:26:33.484Z,15.04
2022-11-15T01:32:16.439Z,15.04
2022-11-15T01:37:59.313Z,15.04
2022-11-15T01:43:42.111Z,15.03
2022-11-15T01:49:28.357Z,15.04
2022-11-15T01:55:14.410Z,15.05
2022-11-15T02:00:58.370Z,15.06
2022-11-15T02:06:42.165Z,15.05
2022-11-15T02:12:25.199Z,15.06
2022-11-15T02:18:16.330Z,15.08
2022-11-15T02:24:16.574Z,15.09
2022-11-15T02:30:07.909Z,15.13
2022-11-15T02:35:56.115Z,15.13
2022-11-15T02:41:43.033Z,15.15
2022-11-15T02:47:28.676Z,15.15
2022-11-15T02:53:12.168Z,15.17
2022-11-15T02:59:02.974Z,15.16
2022-11-15T03:04:52.089Z,15.17
2022-11-15T03:10:40.789Z,15.16
2022-11-15T03:16:26.562Z,15.15
2022-11-15T03:22:11.973Z,15.15
2022-11-15T03:27:57.063Z,15.14
2022-11-15T03:33:41.312Z,15.13
2022-11-15T03:39:25.317Z,15.12
2022-11-15T03:45:11.953Z,15.12
2022-11-15T03:50:55.272Z,15.13
2022-11-15T03:56:38.239Z,15.12
2022-11-15T04:02:21.997Z,15.12
2022-11-15T04:08:04.941Z,15.12
2022-11-15T04:13:49.787Z,15.09
2022-11-15T04:19:32.566Z,15.1
2022-11-15T04:25:18.432Z,15.09
2022-11-15T04:31:12.976Z,15.11
2022-11-15T04:36:55.892Z,15.09
2022-11-15T04:42:40.992Z,15.08
2022-11-15T04:48:23.730Z,15.08
2022-11-15T04:54:06.860Z,15.06
2022-11-15T04:59:49.635Z,15.04
2022-11-15T05:05:32.770Z,15.02
2022-11-15T05:11:16.716Z,15
2022-11-15T05:16:59.600Z,14.97
2022-11-15T05:22:42.742Z,14.95
2022-11-15T05:28:25.852Z,14.93
2022-11-15T05:34:08.844Z,14.89
2022-11-15T05:39:51.789Z,14.87
2022-11-15T05:45:35.510Z,14.83
2022-11-15T05:51:20.188Z,14.83
2022-11-15T05:57:03.176Z,14.79
2022-11-15T06:02:46.177Z,14.74
2022-11-15T06:08:30.126Z,14.72
2022-11-15T06:14:14.301Z,14.7
2022-11-15T06:19:57.215Z,14.69
2022-11-15T06:25:40.221Z,14.65
2022-11-15T06:31:23.002Z,14.63
2022-11-15T06:37:05.935Z,14.6
2022-11-15T06:42:48.695Z,14.56
2022-11-15T06:48:32.238Z,14.54
2022-11-15T06:54:15.215Z,14.5
2022-11-15T06:59:58.246Z,14.47
2022-11-15T07:05:41.080Z,14.46
2022-11-15T07:11:24.101Z,14.44
2022-11-15T07:17:07.807Z,14.44
2022-11-15T07:22:50.685Z,14.46
2022-11-15T07:28:33.676Z,14.5
2022-11-15T07:34:17.165Z,14.54
2022-11-15T07:40:00.290Z,14.6
2022-11-15T07:45:45.450Z,14.64
2022-11-15T07:51:28.536Z,14.75
2022-11-15T07:57:12.428Z,14.74
2022-11-15T08:03:00.237Z,14.76
2022-11-15T08:08:43.271Z,14.8
2022-11-15T08:14:28.496Z,14.83
2022-11-15T08:20:11.980Z,14.86
2022-11-15T08:25:59.289Z,14.91
2022-11-15T08:31:42.611Z,14.99
2022-11-15T08:37:25.500Z,15.06
2022-11-15T08:43:08.482Z,15.12
2022-11-15T08:48:51.360Z,15.24
2022-11-15T08:54:34.174Z,15.31
2022-11-15T09:00:17.962Z,15.32
2022-11-15T09:06:02.860Z,15.38
2022-11-15T09:11:47.693Z,15.41
2022-11-15T09:17:30.643Z,15.43
2022-11-15T09:23:13.577Z,15.47
2022-11-15T09:28:56.809Z,15.52
2022-11-15T09:34:39.629Z,15.54
2022-11-15T09:40:23.338Z,15.63
2022-11-15T09:46:14.030Z,15.68
2022-11-15T09:51:58.549Z,15.76
2022-11-15T09:57:44.987Z,15.89
2022-11-15T10:03:30.827Z,16.08
2022-11-15T10:09:21.234Z,16.23
2022-11-15T10:15:11.785Z,16.38
2022-11-15T10:20:58.194Z,16.51
2022-11-15T10:26:46.623Z,16.67
2022-11-15T10:32:30.578Z,16.79
2022-11-15T10:38:13.581Z,16.92
2022-11-15T10:44:09.497Z,17.04
2022-11-15T10:50:03.774Z,17.28
2022-11-15T10:55:48.044Z,17.31
2022-11-15T11:01:37.860Z,17.45
2022-11-15T11:07:25.485Z,17.55
2022-11-15T11:13:22.662Z,17.63
2022-11-15T11:19:11.581Z,17.62
2022-11-15T11:24:59.750Z,17.58
2022-11-15T11:30:49.347Z,17.48
2022-11-15T11:36:36.121Z,17.4
2022-11-15T11:42:24.108Z,17.39
2022-11-15T11:48:11.359Z,17.49
2022-11-15T11:53:57.128Z,17.63
2022-11-15T11:59:44.405Z,17.75
2022-11-15T12:05:31.004Z,17.9
2022-11-15T12:11:15.763Z,17.88
2022-11-15T12:16:58.551Z,17.87
2022-11-15T12:22:43.604Z,17.91
2022-11-15T12:28:31.858Z,17.99
2022-11-15T12:34:25.133Z,18.2
2022-11-15T12:40:16.311Z,18.41
2022-11-15T12:46:02.061Z,18.36
2022-11-15T12:52:05.403Z,18.29
2022-11-15T12:57:48.372Z,18.24
2022-11-15T13:03:31.694Z,18.13
2022-11-15T13:09:27.473Z,17.98
2022-11-15T13:15:21.611Z,17.87
2022-11-15T13:21:06.621Z,17.87
2022-11-15T13:26:49.638Z,17.81
2022-11-15T13:32:32.621Z,17.74
2022-11-15T13:38:19.225Z,17.74
2022-11-15T13:44:02.878Z,17.71
2022-11-15T13:49:45.765Z,17.67
2022-11-15T13:55:29.440Z,17.63
2022-11-15T14:01:15.196Z,17.61
2022-11-15T14:06:59.825Z,17.54
2022-11-15T14:12:47.929Z,17.49
2022-11-15T14:18:48.136Z,17.46
2022-11-15T14:24:32.105Z,17.47
2022-11-15T14:30:18.315Z,17.43
2022-11-15T14:36:03.569Z,17.35
2022-11-15T14:41:48.172Z,17.31
2022-11-15T14:47:30.942Z,17.29
2022-11-15T14:53:17.076Z,17.23
2022-11-15T14:59:00.090Z,17.17
2022-11-15T15:04:43.219Z,17.12
2022-11-15T15:10:44.050Z,17.05
2022-11-15T15:16:23.312Z,17.05
2022-11-15T15:22:06.337Z,17.02
2022-11-15T15:27:49.450Z,16.95
2022-11-15T15:33:32.608Z,16.87
2022-11-15T15:39:15.593Z,16.82
2022-11-15T15:44:59.502Z,16.8
2022-11-15T15:50:42.933Z,16.78
2022-11-15T15:56:27.017Z,16.74
2022-11-15T16:02:12.159Z,16.69
2022-11-15T16:07:55.975Z,16.69
2022-11-15T16:13:39.021Z,16.7
2022-11-15T16:19:23.017Z,16.64
2022-11-15T16:25:08.667Z,16.6
2022-11-15T16:30:57.735Z,16.57
2022-11-15T16:36:41.448Z,16.53
2022-11-15T16:42:24.211Z,16.49
2022-11-15T16:48:07.205Z,16.47
2022-11-15T16:53:51.988Z,16.45
2022-11-15T16:59:38.404Z,16.47
2022-11-15T17:05:22.252Z,16.43
2022-11-15T17:11:08.700Z,16.4
2022-11-15T17:16:51.753Z,16.43
2022-11-15T17:22:35.984Z,16.45
2022-11-15T17:28:20.784Z,16.41
2022-11-15T17:34:04.663Z,16.4
2022-11-15T17:39:47.532Z,16.4
2022-11-15T17:45:31.590Z,16.37
2022-11-15T17:51:15.288Z,16.35
2022-11-15T17:56:59.237Z,16.33
2022-11-15T18:02:43.163Z,16.36
2022-11-15T18:08:26.849Z,16.36
2022-11-15T18:14:12.494Z,16.34
2022-11-15T18:19:55.445Z,16.37
2022-11-15T18:25:38.145Z,16.39
2022-11-15T18:31:22.249Z,16.34
2022-11-15T18:37:04.975Z,16.3
2022-11-15T18:42:47.713Z,16.29
2022-11-15T18:48:32.916Z,16.29
2022-11-15T18:54:16.512Z,16.29
2022-11-15T18:59:59.304Z,16.26
2022-11-15T19:05:42.641Z,16.27
2022-11-15T19:11:26.869Z,16.28
2022-11-15T19:17:09.860Z,16.27
2022-11-15T19:22:52.742Z,16.24
2022-11-15T19:28:35.896Z,16.22
2022-11-15T19:34:18.689Z,16.2
2022-11-15T19:40:03.070Z,16.17
2022-11-15T19:45:52.166Z,16.19
2022-11-15T19:51:44.154Z,16.24
2022-11-15T19:57:28.121Z,16.21
2022-11-15T20:03:12.781Z,16.18
2022-11-15T20:08:56.353Z,16.16
2022-11-15T20:14:39.423Z,16.18
2022-11-15T20:20:23.606Z,16.2
2022-11-15T20:26:08.177Z,16.18
2022-11-15T20:31:52.813Z,16.17
2022-11-15T20:37:37.168Z,16.24
2022-11-15T20:43:21.060Z,16.19
2022-11-15T20:49:04.048Z,16.19
2022-11-15T20:54:47.336Z,16.18
2022-11-15T21:00:30.337Z,16.16
2022-11-15T21:06:13.438Z,16.15
2022-11-15T21:11:57.787Z,16.16
2022-11-15T21:17:40.801Z,16.16
2022-11-15T21:23:24.073Z,16.18
2022-11-15T21:29:07.500Z,16.16
2022-11-15T21:34:51.455Z,16.15
2022-11-15T21:40:36.399Z,16.18
2022-11-15T21:46:19.927Z,16.2
2022-11-15T21:52:03.201Z,16.22
2022-11-15T21:57:46.264Z,16.17
2022-11-15T22:03:29.188Z,16.16
2022-11-15T22:09:11.987Z,16.14
2022-11-15T22:14:55.120Z,16.16
2022-11-15T22:20:44.327Z,16.15
2022-11-15T22:26:27.560Z,16.15
2022-11-15T22:32:10.572Z,16.13
2022-11-15T22:37:53.685Z,16.14
2022-11-15T22:43:36.799Z,16.16
2022-11-15T22:49:20.726Z,16.19
2022-11-15T22:55:12.948Z,16.18
2022-11-15T23:00:56.818Z,16.17
2022-11-15T23:06:39.945Z,16.16
2022-11-15T23:12:24.234Z,16.15
2022-11-15T23:18:07.269Z,16.17
2022-11-15T23:23:51.073Z,16.15
2022-11-15T23:29:34.336Z,16.12
2022-11-15T23:35:17.478Z,16.11
2022-11-15T23:41:00.603Z,16.12
2022-11-15T23:46:43.530Z,16.11
2022-11-15T23:52:27.458Z,16.11
2022-11-15T23:58:10.524Z,16.11
